SLE4006 EPKK-EPPO
Flight info
| Callsign | SLE4006 |
|---|---|
| Flight time | 1h 2m |
| Altitude | 24000 |
| Route | LUMVE DCT NUDRO L619 ARMEX DCT NILPU |
| Aircraft | B38M/M-SDE1FGHILORVWXY/HB1 |
Departure
| Time | 2026-04-25 02:50 |
|---|---|
| Airport | Kraków John Paul II International Airport (EPKK) |
Arrival
| Time | 2026-04-25 03:52 |
|---|---|
| Airport | Poznań-Ławica Airport (EPPO) |
| Time | Latitude | Longitude | Altitude | Speed | Heading |
|---|---|---|---|---|---|
| 2026-04-25 02:26 | 50.07487 | 19.79676 | 799 ft | 0 kts | 258° |
| 2026-04-25 02:40 | 50.07490 | 19.79708 | 799 ft | 4 kts | 272° |
| 2026-04-25 02:40 | 50.07483 | 19.79744 | 799 ft | 4 kts | 314° |
| 2026-04-25 02:40 | 50.07468 | 19.79759 | 799 ft | 0 kts | 348° |
| 2026-04-25 02:45 | 50.07485 | 19.79753 | 799 ft | 8 kts | 348° |
| 2026-04-25 02:45 | 50.07557 | 19.79729 | 799 ft | 13 kts | 348° |
| 2026-04-25 02:45 | 50.07642 | 19.79701 | 799 ft | 11 kts | 349° |
| 2026-04-25 02:46 | 50.07693 | 19.79737 | 799 ft | 7 kts | 60° |
| 2026-04-25 02:46 | 50.07707 | 19.79815 | 799 ft | 9 kts | 79° |
| 2026-04-25 02:46 | 50.07726 | 19.79961 | 799 ft | 18 kts | 77° |
| 2026-04-25 02:46 | 50.07757 | 19.80185 | 799 ft | 21 kts | 77° |
| 2026-04-25 02:47 | 50.07792 | 19.80335 | 799 ft | 9 kts | 34° |
| 2026-04-25 02:47 | 50.07842 | 19.80336 | 799 ft | 7 kts | 349° |
| 2026-04-25 02:47 | 50.07846 | 19.80335 | 799 ft | 0 kts | 350° |
| 2026-04-25 02:48 | 50.07850 | 19.80334 | 799 ft | 5 kts | 350° |
| 2026-04-25 02:48 | 50.07935 | 19.80310 | 799 ft | 17 kts | 349° |
| 2026-04-25 02:48 | 50.08011 | 19.80285 | 799 ft | 1 kts | 311° |
| 2026-04-25 02:49 | 50.08014 | 19.80227 | 799 ft | 0 kts | 260° |
| 2026-04-25 02:49 | 50.07987 | 19.80024 | 800 ft | 57 kts | 258° |
| 2026-04-25 02:49 | 50.07843 | 19.79007 | 800 ft | 132 kts | 258° |
| 2026-04-25 02:50 | 50.07612 | 19.77322 | 988 ft | 177 kts | 257° |
| 2026-04-25 02:50 | 50.07349 | 19.75442 | 1977 ft | 177 kts | 259° |
| 2026-04-25 02:50 | 50.07098 | 19.73647 | 3057 ft | 176 kts | 259° |
| 2026-04-25 02:50 | 50.06818 | 19.71632 | 3389 ft | 205 kts | 259° |
| 2026-04-25 02:51 | 50.06498 | 19.69340 | 3616 ft | 232 kts | 259° |
| 2026-04-25 02:51 | 50.06139 | 19.66780 | 4016 ft | 249 kts | 259° |
| 2026-04-25 02:51 | 50.05763 | 19.64115 | 4880 ft | 254 kts | 259° |
| 2026-04-25 02:51 | 50.05382 | 19.61421 | 5873 ft | 256 kts | 259° |
| 2026-04-25 02:52 | 50.04996 | 19.58696 | 6805 ft | 260 kts | 259° |
| 2026-04-25 02:52 | 50.04604 | 19.55927 | 7684 ft | 264 kts | 260° |
| 2026-04-25 02:52 | 50.04206 | 19.53114 | 8576 ft | 268 kts | 261° |
| 2026-04-25 02:52 | 50.03800 | 19.50250 | 9464 ft | 273 kts | 262° |
| 2026-04-25 02:53 | 50.03388 | 19.47352 | 10327 ft | 277 kts | 262° |
| 2026-04-25 02:53 | 50.02969 | 19.44405 | 11149 ft | 280 kts | 262° |
| 2026-04-25 02:53 | 50.02797 | 19.41455 | 11992 ft | 276 kts | 280° |
| 2026-04-25 02:53 | 50.03304 | 19.38604 | 12903 ft | 274 kts | 294° |
| 2026-04-25 02:54 | 50.04051 | 19.35865 | 13820 ft | 277 kts | 296° |
| 2026-04-25 02:54 | 50.04833 | 19.33111 | 14638 ft | 280 kts | 296° |
| 2026-04-25 02:54 | 50.05626 | 19.30326 | 15502 ft | 283 kts | 296° |
| 2026-04-25 02:54 | 50.06424 | 19.27504 | 16362 ft | 286 kts | 296° |
| 2026-04-25 02:55 | 50.07227 | 19.24644 | 17217 ft | 289 kts | 295° |
| 2026-04-25 02:55 | 50.08035 | 19.21751 | 18069 ft | 293 kts | 295° |
| 2026-04-25 02:55 | 50.08850 | 19.18819 | 18829 ft | 297 kts | 295° |
| 2026-04-25 02:55 | 50.09669 | 19.15862 | 19577 ft | 299 kts | 295° |
| 2026-04-25 02:56 | 50.10496 | 19.12868 | 20336 ft | 302 kts | 295° |
| 2026-04-25 02:56 | 50.11329 | 19.09849 | 21075 ft | 305 kts | 295° |
| 2026-04-25 02:56 | 50.12159 | 19.06832 | 21793 ft | 308 kts | 295° |
| 2026-04-25 02:56 | 50.13008 | 19.03744 | 22512 ft | 311 kts | 295° |
| 2026-04-25 02:57 | 50.13867 | 19.00613 | 23228 ft | 315 kts | 295° |
| 2026-04-25 02:57 | 50.14731 | 18.97462 | 23866 ft | 316 kts | 295° |
| 2026-04-25 02:57 | 50.15592 | 18.94317 | 23996 ft | 314 kts | 295° |
| 2026-04-25 02:57 | 50.16446 | 18.91191 | 24034 ft | 311 kts | 295° |
| 2026-04-25 02:58 | 50.17288 | 18.88108 | 24042 ft | 314 kts | 295° |
| 2026-04-25 02:58 | 50.18144 | 18.84970 | 24049 ft | 314 kts | 295° |
| 2026-04-25 02:58 | 50.19000 | 18.81825 | 24056 ft | 315 kts | 295° |
| 2026-04-25 02:58 | 50.19856 | 18.78674 | 24056 ft | 316 kts | 294° |
| 2026-04-25 02:59 | 50.20713 | 18.75520 | 24055 ft | 316 kts | 294° |
| 2026-04-25 02:59 | 50.21570 | 18.72362 | 24054 ft | 316 kts | 294° |
| 2026-04-25 02:59 | 50.22426 | 18.69203 | 24053 ft | 316 kts | 294° |
| 2026-04-25 02:59 | 50.23279 | 18.66044 | 24050 ft | 315 kts | 294° |
| 2026-04-25 03:00 | 50.24115 | 18.62881 | 24054 ft | 314 kts | 294° |
| 2026-04-25 03:00 | 50.24943 | 18.59719 | 24053 ft | 314 kts | 294° |
| 2026-04-25 03:00 | 50.25767 | 18.56563 | 24054 ft | 313 kts | 294° |
| 2026-04-25 03:00 | 50.26589 | 18.53422 | 24053 ft | 312 kts | 294° |
| 2026-04-25 03:01 | 50.27415 | 18.50264 | 24052 ft | 312 kts | 294° |
| 2026-04-25 03:01 | 50.28228 | 18.47151 | 24054 ft | 313 kts | 294° |
| 2026-04-25 03:01 | 50.29050 | 18.44000 | 24056 ft | 313 kts | 294° |
| 2026-04-25 03:01 | 50.29876 | 18.40838 | 24054 ft | 313 kts | 294° |
| 2026-04-25 03:02 | 50.30700 | 18.37692 | 24060 ft | 312 kts | 294° |
| 2026-04-25 03:02 | 50.31522 | 18.34547 | 24058 ft | 312 kts | 294° |
| 2026-04-25 03:02 | 50.32346 | 18.31395 | 24054 ft | 312 kts | 294° |
| 2026-04-25 03:02 | 50.33158 | 18.28284 | 24058 ft | 312 kts | 293° |
| 2026-04-25 03:03 | 50.33978 | 18.25136 | 24052 ft | 312 kts | 293° |
| 2026-04-25 03:03 | 50.34796 | 18.21990 | 24053 ft | 312 kts | 293° |
| 2026-04-25 03:03 | 50.35613 | 18.18843 | 24053 ft | 311 kts | 293° |
| 2026-04-25 03:03 | 50.36430 | 18.15694 | 24057 ft | 312 kts | 293° |
| 2026-04-25 03:04 | 50.37246 | 18.12545 | 24059 ft | 312 kts | 293° |
| 2026-04-25 03:04 | 50.38052 | 18.09429 | 24056 ft | 312 kts | 293° |
| 2026-04-25 03:04 | 50.38862 | 18.06292 | 24054 ft | 312 kts | 293° |
| 2026-04-25 03:05 | 50.40490 | 17.99974 | 24056 ft | 312 kts | 293° |
| 2026-04-25 03:05 | 50.41302 | 17.96815 | 24051 ft | 312 kts | 293° |
| 2026-04-25 03:05 | 50.42014 | 17.94047 | 24056 ft | 312 kts | 293° |
| 2026-04-25 03:06 | 50.42778 | 17.91071 | 24053 ft | 313 kts | 293° |
| 2026-04-25 03:06 | 50.43590 | 17.87899 | 24049 ft | 313 kts | 293° |
| 2026-04-25 03:06 | 50.44459 | 17.84763 | 24043 ft | 312 kts | 301° |
| 2026-04-25 03:06 | 50.45819 | 17.82126 | 24058 ft | 312 kts | 315° |
| 2026-04-25 03:07 | 50.47606 | 17.80161 | 24053 ft | 316 kts | 329° |
| 2026-04-25 03:07 | 50.49571 | 17.78702 | 24050 ft | 317 kts | 332° |
| 2026-04-25 03:07 | 50.51603 | 17.77335 | 24047 ft | 318 kts | 333° |
| 2026-04-25 03:07 | 50.53647 | 17.75991 | 24042 ft | 318 kts | 333° |
| 2026-04-25 03:08 | 50.55690 | 17.74642 | 24043 ft | 318 kts | 333° |
| 2026-04-25 03:08 | 50.57731 | 17.73282 | 24046 ft | 318 kts | 333° |
| 2026-04-25 03:08 | 50.59764 | 17.71915 | 24043 ft | 317 kts | 333° |
| 2026-04-25 03:08 | 50.61771 | 17.70555 | 24041 ft | 317 kts | 333° |
| 2026-04-25 03:09 | 50.63801 | 17.69173 | 24040 ft | 317 kts | 333° |
| 2026-04-25 03:09 | 50.65833 | 17.67785 | 24037 ft | 317 kts | 332° |
| 2026-04-25 03:09 | 50.67860 | 17.66396 | 24037 ft | 317 kts | 332° |
| 2026-04-25 03:09 | 50.69884 | 17.65007 | 24039 ft | 317 kts | 332° |
| 2026-04-25 03:10 | 50.71905 | 17.63618 | 24039 ft | 317 kts | 332° |
| 2026-04-25 03:10 | 50.73925 | 17.62228 | 24039 ft | 317 kts | 332° |
| 2026-04-25 03:10 | 50.75919 | 17.60854 | 24037 ft | 317 kts | 332° |
| 2026-04-25 03:10 | 50.77940 | 17.59460 | 24036 ft | 316 kts | 332° |
| 2026-04-25 03:11 | 50.79955 | 17.58068 | 24036 ft | 316 kts | 332° |
| 2026-04-25 03:11 | 50.81971 | 17.56675 | 24038 ft | 316 kts | 332° |
| 2026-04-25 03:11 | 50.83984 | 17.55282 | 24036 ft | 316 kts | 332° |
| 2026-04-25 03:11 | 50.86001 | 17.53886 | 24033 ft | 316 kts | 332° |
| 2026-04-25 03:12 | 50.88013 | 17.52491 | 24033 ft | 316 kts | 332° |
| 2026-04-25 03:12 | 50.90029 | 17.51092 | 24032 ft | 316 kts | 332° |
| 2026-04-25 03:12 | 50.92045 | 17.49693 | 24032 ft | 316 kts | 332° |
| 2026-04-25 03:12 | 50.94037 | 17.48307 | 24030 ft | 316 kts | 332° |
| 2026-04-25 03:13 | 50.96050 | 17.46906 | 24029 ft | 316 kts | 332° |
| 2026-04-25 03:13 | 50.98068 | 17.45501 | 24033 ft | 316 kts | 332° |
| 2026-04-25 03:13 | 51.00082 | 17.44097 | 24035 ft | 316 kts | 332° |
| 2026-04-25 03:13 | 51.02101 | 17.42689 | 24030 ft | 316 kts | 332° |
| 2026-04-25 03:14 | 51.04118 | 17.41280 | 24031 ft | 316 kts | 332° |
| 2026-04-25 03:14 | 51.05962 | 17.39990 | 24031 ft | 316 kts | 332° |
| 2026-04-25 03:24 | 51.06531 | 17.39593 | 24024 ft | 316 kts | 332° |
| 2026-04-25 03:24 | 51.09202 | 17.37722 | 24029 ft | 316 kts | 332° |
| 2026-04-25 03:25 | 51.11218 | 17.36310 | 24023 ft | 316 kts | 332° |
| 2026-04-25 03:25 | 51.13234 | 17.34896 | 24023 ft | 316 kts | 332° |
| 2026-04-25 03:25 | 51.15245 | 17.33484 | 24026 ft | 316 kts | 332° |
| 2026-04-25 03:25 | 51.16581 | 17.32546 | 24025 ft | 316 kts | 332° |
| 2026-04-25 03:26 | 51.18625 | 17.31221 | 24021 ft | 317 kts | 334° |
| 2026-04-25 03:26 | 51.20692 | 17.29975 | 24016 ft | 317 kts | 335° |
| 2026-04-25 03:26 | 51.22769 | 17.28741 | 23828 ft | 318 kts | 335° |
| 2026-04-25 03:26 | 51.24796 | 17.27537 | 23594 ft | 304 kts | 335° |
| 2026-04-25 03:27 | 51.26749 | 17.26369 | 23249 ft | 294 kts | 335° |
| 2026-04-25 03:27 | 51.28630 | 17.25236 | 22907 ft | 283 kts | 335° |
| 2026-04-25 03:27 | 51.30449 | 17.24134 | 22597 ft | 275 kts | 334° |
| 2026-04-25 03:27 | 51.32228 | 17.23050 | 22278 ft | 272 kts | 334° |
| 2026-04-25 03:28 | 51.33993 | 17.21969 | 21983 ft | 282 kts | 334° |
| 2026-04-25 03:28 | 51.35895 | 17.20798 | 21661 ft | 303 kts | 335° |
| 2026-04-25 03:28 | 51.37869 | 17.19589 | 21277 ft | 299 kts | 335° |
| 2026-04-25 03:28 | 51.39788 | 17.18422 | 20917 ft | 288 kts | 335° |
| 2026-04-25 03:29 | 51.41625 | 17.17302 | 20575 ft | 277 kts | 335° |
| 2026-04-25 03:29 | 51.43402 | 17.16214 | 20268 ft | 270 kts | 335° |
| 2026-04-25 03:29 | 51.45136 | 17.15150 | 19957 ft | 265 kts | 335° |
| 2026-04-25 03:29 | 51.46861 | 17.14089 | 19680 ft | 268 kts | 335° |
| 2026-04-25 03:30 | 51.48677 | 17.13028 | 19385 ft | 289 kts | 341° |
| 2026-04-25 03:30 | 51.50681 | 17.12508 | 19055 ft | 299 kts | 353° |
| 2026-04-25 03:30 | 51.52741 | 17.12620 | 18722 ft | 291 kts | 358° |
| 2026-04-25 03:30 | 51.54730 | 17.12858 | 18387 ft | 281 kts | 359° |
| 2026-04-25 03:31 | 51.56653 | 17.13105 | 18041 ft | 274 kts | 358° |
| 2026-04-25 03:31 | 51.58535 | 17.13342 | 17714 ft | 269 kts | 358° |
| 2026-04-25 03:31 | 51.60394 | 17.13566 | 17354 ft | 267 kts | 358° |
| 2026-04-25 03:31 | 51.62257 | 17.13782 | 17122 ft | 274 kts | 358° |
| 2026-04-25 03:32 | 51.64182 | 17.13999 | 16779 ft | 276 kts | 358° |
| 2026-04-25 03:32 | 51.66068 | 17.14217 | 16467 ft | 267 kts | 358° |
| 2026-04-25 03:32 | 51.67902 | 17.14428 | 16188 ft | 261 kts | 358° |
| 2026-04-25 03:32 | 51.69701 | 17.14632 | 15898 ft | 259 kts | 358° |
| 2026-04-25 03:33 | 51.71504 | 17.14830 | 15624 ft | 270 kts | 358° |
| 2026-04-25 03:33 | 51.73441 | 17.15037 | 15322 ft | 283 kts | 358° |
| 2026-04-25 03:33 | 51.75395 | 17.15257 | 14980 ft | 277 kts | 358° |
| 2026-04-25 03:33 | 51.77277 | 17.15475 | 14659 ft | 266 kts | 358° |
| 2026-04-25 03:34 | 51.79093 | 17.15685 | 14359 ft | 257 kts | 358° |
| 2026-04-25 03:34 | 51.80860 | 17.15884 | 14076 ft | 253 kts | 358° |
| 2026-04-25 03:34 | 51.82603 | 17.16078 | 13805 ft | 252 kts | 358° |
| 2026-04-25 03:34 | 51.84389 | 17.16272 | 13510 ft | 265 kts | 358° |
| 2026-04-25 03:35 | 51.86271 | 17.16476 | 13186 ft | 274 kts | 358° |
| 2026-04-25 03:35 | 51.88179 | 17.16692 | 13046 ft | 276 kts | 358° |
| 2026-04-25 03:35 | 51.90071 | 17.16910 | 12994 ft | 265 kts | 358° |
| 2026-04-25 03:35 | 51.91852 | 17.17119 | 12978 ft | 247 kts | 358° |
| 2026-04-25 03:36 | 51.93495 | 17.17312 | 12975 ft | 226 kts | 357° |
| 2026-04-25 03:36 | 51.95003 | 17.17486 | 12976 ft | 209 kts | 355° |
| 2026-04-25 03:36 | 51.96405 | 17.17465 | 13000 ft | 203 kts | 350° |
| 2026-04-25 03:36 | 51.97861 | 17.17317 | 13008 ft | 214 kts | 350° |
| 2026-04-25 03:37 | 51.99362 | 17.17158 | 13014 ft | 217 kts | 350° |
| 2026-04-25 03:37 | 52.00869 | 17.17005 | 13000 ft | 216 kts | 350° |
| 2026-04-25 03:37 | 52.02369 | 17.16856 | 12998 ft | 215 kts | 350° |
| 2026-04-25 03:37 | 52.03860 | 17.16711 | 12990 ft | 214 kts | 350° |
| 2026-04-25 03:38 | 52.05329 | 17.16570 | 12992 ft | 214 kts | 350° |
| 2026-04-25 03:38 | 52.06839 | 17.16423 | 12768 ft | 222 kts | 350° |
| 2026-04-25 03:38 | 52.08409 | 17.16272 | 12223 ft | 229 kts | 351° |
| 2026-04-25 03:38 | 52.10022 | 17.16119 | 11552 ft | 236 kts | 351° |
| 2026-04-25 03:39 | 52.11696 | 17.15960 | 10827 ft | 245 kts | 351° |
| 2026-04-25 03:39 | 52.13405 | 17.15800 | 10128 ft | 247 kts | 352° |
| 2026-04-25 03:39 | 52.15114 | 17.15659 | 9500 ft | 241 kts | 355° |
| 2026-04-25 03:39 | 52.16709 | 17.16161 | 9286 ft | 226 kts | 12° |
| 2026-04-25 03:40 | 52.18066 | 17.16898 | 9134 ft | 209 kts | 11° |
| 2026-04-25 03:40 | 52.19438 | 17.17623 | 9015 ft | 208 kts | 10° |
| 2026-04-25 03:40 | 52.20810 | 17.18343 | 8980 ft | 206 kts | 10° |
| 2026-04-25 03:40 | 52.22171 | 17.19056 | 8981 ft | 205 kts | 10° |
| 2026-04-25 03:41 | 52.23499 | 17.20002 | 8681 ft | 217 kts | 31° |
| 2026-04-25 03:41 | 52.24359 | 17.22032 | 8355 ft | 223 kts | 68° |
| 2026-04-25 03:41 | 52.24325 | 17.24560 | 8057 ft | 226 kts | 103° |
| 2026-04-25 03:41 | 52.23851 | 17.26956 | 7775 ft | 224 kts | 105° |
| 2026-04-25 03:42 | 52.23361 | 17.29374 | 7480 ft | 224 kts | 105° |
| 2026-04-25 03:42 | 52.23261 | 17.31835 | 7140 ft | 215 kts | 68° |
| 2026-04-25 03:42 | 52.24011 | 17.33784 | 6870 ft | 198 kts | 34° |
| 2026-04-25 03:42 | 52.25150 | 17.34896 | 6594 ft | 187 kts | 14° |
| 2026-04-25 03:43 | 52.26378 | 17.35578 | 6292 ft | 186 kts | 11° |
| 2026-04-25 03:43 | 52.27620 | 17.36218 | 5983 ft | 187 kts | 11° |
| 2026-04-25 03:43 | 52.28853 | 17.36857 | 5679 ft | 188 kts | 11° |
| 2026-04-25 03:43 | 52.30120 | 17.37281 | 5338 ft | 184 kts | 349° |
| 2026-04-25 03:44 | 52.31237 | 17.36466 | 5052 ft | 176 kts | 315° |
| 2026-04-25 03:44 | 52.31868 | 17.34788 | 4752 ft | 176 kts | 288° |
| 2026-04-25 03:44 | 52.32326 | 17.32908 | 4462 ft | 180 kts | 294° |
| 2026-04-25 03:44 | 52.32809 | 17.31038 | 4131 ft | 174 kts | 289° |
| 2026-04-25 03:45 | 52.33190 | 17.29252 | 3809 ft | 162 kts | 287° |
| 2026-04-25 03:45 | 52.33526 | 17.27565 | 3493 ft | 151 kts | 286° |
| 2026-04-25 03:45 | 52.33841 | 17.25949 | 3202 ft | 149 kts | 287° |
| 2026-04-25 03:45 | 52.34150 | 17.24319 | 3054 ft | 151 kts | 285° |
| 2026-04-25 03:46 | 52.34461 | 17.22667 | 3015 ft | 151 kts | 286° |
| 2026-04-25 03:46 | 52.34769 | 17.21045 | 3013 ft | 148 kts | 285° |
| 2026-04-25 03:46 | 52.35078 | 17.19421 | 3005 ft | 149 kts | 286° |
| 2026-04-25 03:46 | 52.35387 | 17.17785 | 2994 ft | 150 kts | 286° |
| 2026-04-25 03:47 | 52.35693 | 17.16168 | 2996 ft | 149 kts | 285° |
| 2026-04-25 03:47 | 52.35994 | 17.14572 | 3007 ft | 149 kts | 287° |
| 2026-04-25 03:47 | 52.36313 | 17.12945 | 3006 ft | 151 kts | 285° |
| 2026-04-25 03:47 | 52.36625 | 17.11285 | 2992 ft | 153 kts | 285° |
| 2026-04-25 03:48 | 52.36939 | 17.09614 | 2989 ft | 154 kts | 285° |
| 2026-04-25 03:48 | 52.37254 | 17.07950 | 2988 ft | 152 kts | 285° |
| 2026-04-25 03:48 | 52.37566 | 17.06318 | 2998 ft | 151 kts | 286° |
| 2026-04-25 03:48 | 52.37881 | 17.04659 | 2932 ft | 151 kts | 286° |
| 2026-04-25 03:49 | 52.38195 | 17.03019 | 2747 ft | 150 kts | 286° |
| 2026-04-25 03:49 | 52.38503 | 17.01398 | 2563 ft | 147 kts | 285° |
| 2026-04-25 03:49 | 52.38794 | 16.99868 | 2354 ft | 137 kts | 285° |
| 2026-04-25 03:49 | 52.39068 | 16.98437 | 2210 ft | 130 kts | 286° |
| 2026-04-25 03:50 | 52.39334 | 16.97045 | 2002 ft | 126 kts | 285° |
| 2026-04-25 03:50 | 52.39600 | 16.95658 | 1824 ft | 128 kts | 286° |
| 2026-04-25 03:50 | 52.39864 | 16.94279 | 1660 ft | 127 kts | 286° |
| 2026-04-25 03:50 | 52.40131 | 16.92892 | 1485 ft | 129 kts | 287° |
| 2026-04-25 03:51 | 52.40400 | 16.91486 | 1291 ft | 130 kts | 286° |
| 2026-04-25 03:51 | 52.40675 | 16.90054 | 1104 ft | 134 kts | 287° |
| 2026-04-25 03:51 | 52.40957 | 16.88584 | 911 ft | 138 kts | 286° |
| 2026-04-25 03:51 | 52.41235 | 16.87097 | 733 ft | 135 kts | 286° |
| 2026-04-25 03:52 | 52.41535 | 16.85604 | 580 ft | 141 kts | 286° |
| 2026-04-25 03:52 | 52.41837 | 16.84048 | 333 ft | 141 kts | 285° |
| 2026-04-25 03:52 | 52.42077 | 16.82765 | 286 ft | 70 kts | 286° |
| 2026-04-25 03:52 | 52.42175 | 16.82233 | 293 ft | 45 kts | 287° |
| 2026-04-25 03:53 | 52.42259 | 16.81773 | 287 ft | 39 kts | 286° |
| 2026-04-25 03:53 | 52.42292 | 16.81388 | 288 ft | 31 kts | 264° |
| 2026-04-25 03:53 | 52.42279 | 16.81261 | 287 ft | 0 kts | 259° |
| 2026-04-25 03:56 | 52.42279 | 16.81259 | 287 ft | 2 kts | 259° |
| 2026-04-25 03:56 | 52.42269 | 16.81198 | 291 ft | 10 kts | 243° |
| 2026-04-25 03:57 | 52.42209 | 16.81192 | 287 ft | 12 kts | 127° |
| 2026-04-25 03:57 | 52.42174 | 16.81376 | 287 ft | 24 kts | 106° |
| 2026-04-25 03:57 | 52.42106 | 16.81754 | 287 ft | 45 kts | 107° |
| 2026-04-25 03:57 | 52.42016 | 16.82242 | 287 ft | 35 kts | 108° |
| 2026-04-25 03:58 | 52.41938 | 16.82608 | 289 ft | 34 kts | 108° |
| 2026-04-25 03:58 | 52.41870 | 16.82888 | 287 ft | 19 kts | 146° |
| 2026-04-25 03:58 | 52.41756 | 16.82871 | 290 ft | 16 kts | 199° |
| 2026-04-25 03:58 | 52.41685 | 16.82859 | 289 ft | 7 kts | 141° |
| 2026-04-25 03:59 | 52.41667 | 16.82907 | 287 ft | 3 kts | 120° |
| 2026-04-25 03:59 | 52.41646 | 16.82926 | 287 ft | 7 kts | 170° |
| 2026-04-25 03:59 | 52.41613 | 16.82921 | 287 ft | 2 kts | 190° |
| 2026-04-25 03:59 | 52.41594 | 16.82914 | 287 ft | 2 kts | 192° |
| 2026-04-25 04:00 | 52.41582 | 16.82910 | 287 ft | 0 kts | 192° |
| 2026-04-25 04:00 | 52.41581 | 16.82909 | 287 ft | 0 kts | 192° |